sensor_id;sensor_type;location;lat;lon;timestamp;temperature;humidity
15656;DHT22;7928;43.614;1.456;2024-01-06T00:01:32;7.90;99.90
15656;DHT22;7928;43.614;1.456;2024-01-06T00:03:59;8.00;99.90
15656;DHT22;7928;43.614;1.456;2024-01-06T00:06:26;8.00;99.90
15656;DHT22;7928;43.614;1.456;2024-01-06T00:08:53;8.00;99.90
15656;DHT22;7928;43.614;1.456;2024-01-06T00:11:20;8.00;99.90
15656;DHT22;7928;43.614;1.456;2024-01-06T00:13:47;8.00;99.90
15656;DHT22;7928;43.614;1.456;2024-01-06T00:16:16;8.00;99.90
15656;DHT22;7928;43.614;1.456;2024-01-06T00:18:45;7.90;99.90
15656;DHT22;7928;43.614;1.456;2024-01-06T00:21:12;8.00;99.90
15656;DHT22;7928;43.614;1.456;2024-01-06T00:23:40;8.00;99.90
15656;DHT22;7928;43.614;1.456;2024-01-06T00:26:07;8.00;99.90
15656;DHT22;7928;43.614;1.456;2024-01-06T00:28:35;8.00;99.90
15656;DHT22;7928;43.614;1.456;2024-01-06T00:31:02;8.00;99.90
15656;DHT22;7928;43.614;1.456;2024-01-06T00:33:29;8.00;99.90
15656;DHT22;7928;43.614;1.456;2024-01-06T00:35:57;8.00;99.90
15656;DHT22;7928;43.614;1.456;2024-01-06T00:38:24;8.00;99.90
15656;DHT22;7928;43.614;1.456;2024-01-06T00:40:51;8.00;99.90
15656;DHT22;7928;43.614;1.456;2024-01-06T00:43:18;8.00;99.90
15656;DHT22;7928;43.614;1.456;2024-01-06T00:45:45;8.00;99.90
15656;DHT22;7928;43.614;1.456;2024-01-06T00:48:12;8.00;99.90
15656;DHT22;7928;43.614;1.456;2024-01-06T00:50:39;8.00;99.90
15656;DHT22;7928;43.614;1.456;2024-01-06T00:53:07;8.00;99.90
15656;DHT22;7928;43.614;1.456;2024-01-06T00:55:34;8.00;99.90
15656;DHT22;7928;43.614;1.456;2024-01-06T00:58:01;8.00;99.90
15656;DHT22;7928;43.614;1.456;2024-01-06T01:00:28;8.00;99.90
15656;DHT22;7928;43.614;1.456;2024-01-06T01:02:55;8.00;99.90
15656;DHT22;7928;43.614;1.456;2024-01-06T01:05:22;8.00;99.90
15656;DHT22;7928;43.614;1.456;2024-01-06T01:07:49;8.00;99.90
15656;DHT22;7928;43.614;1.456;2024-01-06T01:10:17;8.00;99.90
15656;DHT22;7928;43.614;1.456;2024-01-06T01:12:44;8.00;99.90
15656;DHT22;7928;43.614;1.456;2024-01-06T01:15:11;8.00;99.90
15656;DHT22;7928;43.614;1.456;2024-01-06T01:17:38;8.00;99.90
15656;DHT22;7928;43.614;1.456;2024-01-06T01:20:06;8.00;99.90
15656;DHT22;7928;43.614;1.456;2024-01-06T01:22:33;8.00;99.90
15656;DHT22;7928;43.614;1.456;2024-01-06T01:25:00;8.10;99.90
15656;DHT22;7928;43.614;1.456;2024-01-06T01:27:32;8.00;99.90
15656;DHT22;7928;43.614;1.456;2024-01-06T01:29:59;8.00;99.90
15656;DHT22;7928;43.614;1.456;2024-01-06T01:32:26;8.00;99.90
15656;DHT22;7928;43.614;1.456;2024-01-06T01:34:53;8.00;99.90
15656;DHT22;7928;43.614;1.456;2024-01-06T01:37:20;8.00;99.90
15656;DHT22;7928;43.614;1.456;2024-01-06T01:39:47;8.00;99.90
15656;DHT22;7928;43.614;1.456;2024-01-06T01:42:14;8.00;99.90
15656;DHT22;7928;43.614;1.456;2024-01-06T01:44:43;8.00;99.90
15656;DHT22;7928;43.614;1.456;2024-01-06T01:47:10;8.00;99.90
15656;DHT22;7928;43.614;1.456;2024-01-06T01:49:38;8.00;99.90
15656;DHT22;7928;43.614;1.456;2024-01-06T01:52:05;8.00;99.90
15656;DHT22;7928;43.614;1.456;2024-01-06T01:54:32;8.00;99.90
15656;DHT22;7928;43.614;1.456;2024-01-06T01:56:59;8.00;99.90
15656;DHT22;7928;43.614;1.456;2024-01-06T01:59:27;8.00;99.90
15656;DHT22;7928;43.614;1.456;2024-01-06T02:01:55;8.00;99.90
15656;DHT22;7928;43.614;1.456;2024-01-06T02:04:22;7.90;99.90
15656;DHT22;7928;43.614;1.456;2024-01-06T02:06:49;7.90;99.90
15656;DHT22;7928;43.614;1.456;2024-01-06T02:09:16;7.90;99.90
15656;DHT22;7928;43.614;1.456;2024-01-06T02:11:43;7.90;99.90
15656;DHT22;7928;43.614;1.456;2024-01-06T02:14:10;7.90;99.90
15656;DHT22;7928;43.614;1.456;2024-01-06T02:16:37;7.90;99.90
15656;DHT22;7928;43.614;1.456;2024-01-06T02:19:06;7.80;99.90
15656;DHT22;7928;43.614;1.456;2024-01-06T02:21:41;7.80;99.90
15656;DHT22;7928;43.614;1.456;2024-01-06T02:24:10;7.80;99.90
15656;DHT22;7928;43.614;1.456;2024-01-06T02:26:37;7.80;99.90
15656;DHT22;7928;43.614;1.456;2024-01-06T02:29:04;7.80;99.90
15656;DHT22;7928;43.614;1.456;2024-01-06T02:31:30;7.80;99.90
15656;DHT22;7928;43.614;1.456;2024-01-06T02:33:57;7.80;99.90
15656;DHT22;7928;43.614;1.456;2024-01-06T02:36:24;7.70;99.90
15656;DHT22;7928;43.614;1.456;2024-01-06T02:38:51;7.70;99.90
15656;DHT22;7928;43.614;1.456;2024-01-06T02:41:20;7.70;99.90
15656;DHT22;7928;43.614;1.456;2024-01-06T02:43:46;7.70;99.90
15656;DHT22;7928;43.614;1.456;2024-01-06T02:46:13;7.70;99.90
15656;DHT22;7928;43.614;1.456;2024-01-06T02:48:40;7.70;99.90
15656;DHT22;7928;43.614;1.456;2024-01-06T02:51:07;7.60;99.90
15656;DHT22;7928;43.614;1.456;2024-01-06T02:53:34;7.60;99.90
15656;DHT22;7928;43.614;1.456;2024-01-06T02:56:01;7.60;99.90
15656;DHT22;7928;43.614;1.456;2024-01-06T02:58:29;7.50;99.90
15656;DHT22;7928;43.614;1.456;2024-01-06T03:00:56;7.50;99.90
15656;DHT22;7928;43.614;1.456;2024-01-06T03:03:24;7.40;99.90
15656;DHT22;7928;43.614;1.456;2024-01-06T03:05:51;7.30;99.90
15656;DHT22;7928;43.614;1.456;2024-01-06T03:08:18;7.30;99.90
15656;DHT22;7928;43.614;1.456;2024-01-06T03:10:45;7.30;99.90
15656;DHT22;7928;43.614;1.456;2024-01-06T03:13:12;7.30;99.90
15656;DHT22;7928;43.614;1.456;2024-01-06T03:15:40;7.40;99.90
15656;DHT22;7928;43.614;1.456;2024-01-06T03:18:07;7.40;99.90
15656;DHT22;7928;43.614;1.456;2024-01-06T03:20:34;7.40;99.90
15656;DHT22;7928;43.614;1.456;2024-01-06T03:23:01;7.50;99.90
15656;DHT22;7928;43.614;1.456;2024-01-06T03:25:28;7.50;99.90
15656;DHT22;7928;43.614;1.456;2024-01-06T03:27:55;7.40;99.90
15656;DHT22;7928;43.614;1.456;2024-01-06T03:30:22;7.40;99.90
15656;DHT22;7928;43.614;1.456;2024-01-06T03:32:50;7.40;99.90
15656;DHT22;7928;43.614;1.456;2024-01-06T03:35:17;7.40;99.90
15656;DHT22;7928;43.614;1.456;2024-01-06T03:37:44;7.40;99.90
15656;DHT22;7928;43.614;1.456;2024-01-06T03:40:12;7.40;99.90
15656;DHT22;7928;43.614;1.456;2024-01-06T03:42:39;7.40;99.90
15656;DHT22;7928;43.614;1.456;2024-01-06T03:45:06;7.40;99.90
15656;DHT22;7928;43.614;1.456;2024-01-06T03:47:33;7.30;99.90
15656;DHT22;7928;43.614;1.456;2024-01-06T03:50:02;7.30;99.90
15656;DHT22;7928;43.614;1.456;2024-01-06T03:52:29;7.30;99.90
15656;DHT22;7928;43.614;1.456;2024-01-06T03:54:56;7.30;99.90
15656;DHT22;7928;43.614;1.456;2024-01-06T03:57:23;7.30;99.90
15656;DHT22;7928;43.614;1.456;2024-01-06T03:59:50;7.30;99.90
15656;DHT22;7928;43.614;1.456;2024-01-06T04:02:17;7.30;99.90
15656;DHT22;7928;43.614;1.456;2024-01-06T04:04:43;7.20;99.90
15656;DHT22;7928;43.614;1.456;2024-01-06T04:07:12;7.20;99.90
15656;DHT22;7928;43.614;1.456;2024-01-06T04:09:42;7.20;99.90
15656;DHT22;7928;43.614;1.456;2024-01-06T04:12:09;7.20;99.90
15656;DHT22;7928;43.614;1.456;2024-01-06T04:14:36;7.20;99.90
15656;DHT22;7928;43.614;1.456;2024-01-06T04:17:03;7.10;99.90
15656;DHT22;7928;43.614;1.456;2024-01-06T04:19:30;7.10;99.90
15656;DHT22;7928;43.614;1.456;2024-01-06T04:21:57;7.00;99.90
15656;DHT22;7928;43.614;1.456;2024-01-06T04:24:25;7.00;99.90
15656;DHT22;7928;43.614;1.456;2024-01-06T04:26:52;7.00;99.90
15656;DHT22;7928;43.614;1.456;2024-01-06T04:29:19;7.00;99.90
15656;DHT22;7928;43.614;1.456;2024-01-06T04:31:46;7.10;99.90
15656;DHT22;7928;43.614;1.456;2024-01-06T04:34:13;7.10;99.90
15656;DHT22;7928;43.614;1.456;2024-01-06T04:36:40;7.00;99.90
15656;DHT22;7928;43.614;1.456;2024-01-06T04:39:07;7.00;99.90
15656;DHT22;7928;43.614;1.456;2024-01-06T04:41:35;7.00;99.90
15656;DHT22;7928;43.614;1.456;2024-01-06T04:44:02;7.00;99.90
15656;DHT22;7928;43.614;1.456;2024-01-06T04:46:29;7.00;99.90
15656;DHT22;7928;43.614;1.456;2024-01-06T04:48:56;7.00;99.90
15656;DHT22;7928;43.614;1.456;2024-01-06T04:51:23;7.00;99.90
15656;DHT22;7928;43.614;1.456;2024-01-06T04:53:50;7.00;99.90
15656;DHT22;7928;43.614;1.456;2024-01-06T04:56:17;6.90;99.90
15656;DHT22;7928;43.614;1.456;2024-01-06T04:58:45;6.90;99.90
15656;DHT22;7928;43.614;1.456;2024-01-06T05:01:12;6.90;99.90
15656;DHT22;7928;43.614;1.456;2024-01-06T05:03:39;6.80;99.90
15656;DHT22;7928;43.614;1.456;2024-01-06T05:06:06;6.80;99.90
15656;DHT22;7928;43.614;1.456;2024-01-06T05:08:33;6.90;99.90
15656;DHT22;7928;43.614;1.456;2024-01-06T05:11:04;6.80;99.90
15656;DHT22;7928;43.614;1.456;2024-01-06T05:13:31;6.80;99.90
15656;DHT22;7928;43.614;1.456;2024-01-06T05:16:00;6.80;99.90
15656;DHT22;7928;43.614;1.456;2024-01-06T05:18:27;6.70;99.90
15656;DHT22;7928;43.614;1.456;2024-01-06T05:20:54;6.80;99.90
15656;DHT22;7928;43.614;1.456;2024-01-06T05:23:22;6.80;99.90
15656;DHT22;7928;43.614;1.456;2024-01-06T05:25:49;6.70;99.90
15656;DHT22;7928;43.614;1.456;2024-01-06T05:28:15;6.70;99.90
15656;DHT22;7928;43.614;1.456;2024-01-06T05:30:43;6.70;99.90
15656;DHT22;7928;43.614;1.456;2024-01-06T05:33:13;6.70;99.90
15656;DHT22;7928;43.614;1.456;2024-01-06T05:35:41;6.70;99.90
15656;DHT22;7928;43.614;1.456;2024-01-06T05:38:08;6.70;99.90
15656;DHT22;7928;43.614;1.456;2024-01-06T05:40:34;6.70;99.90
15656;DHT22;7928;43.614;1.456;2024-01-06T05:43:01;6.80;99.90
15656;DHT22;7928;43.614;1.456;2024-01-06T05:45:28;6.80;99.90
15656;DHT22;7928;43.614;1.456;2024-01-06T05:47:55;6.70;99.90
15656;DHT22;7928;43.614;1.456;2024-01-06T05:50:24;6.70;99.90
15656;DHT22;7928;43.614;1.456;2024-01-06T05:52:50;6.70;99.90
15656;DHT22;7928;43.614;1.456;2024-01-06T05:55:18;6.80;99.90
15656;DHT22;7928;43.614;1.456;2024-01-06T05:57:45;6.80;99.90
15656;DHT22;7928;43.614;1.456;2024-01-06T06:00:13;6.80;99.90
15656;DHT22;7928;43.614;1.456;2024-01-06T06:02:40;6.80;99.90
15656;DHT22;7928;43.614;1.456;2024-01-06T06:05:07;6.80;99.90
15656;DHT22;7928;43.614;1.456;2024-01-06T06:07:36;6.80;99.90
15656;DHT22;7928;43.614;1.456;2024-01-06T06:10:06;6.80;99.90
15656;DHT22;7928;43.614;1.456;2024-01-06T06:12:34;6.80;99.90
15656;DHT22;7928;43.614;1.456;2024-01-06T06:15:01;6.80;99.90
15656;DHT22;7928;43.614;1.456;2024-01-06T06:17:29;6.90;99.90
15656;DHT22;7928;43.614;1.456;2024-01-06T06:19:56;6.90;99.90
15656;DHT22;7928;43.614;1.456;2024-01-06T06:22:23;6.80;99.90
15656;DHT22;7928;43.614;1.456;2024-01-06T06:24:53;6.80;99.90
15656;DHT22;7928;43.614;1.456;2024-01-06T06:27:20;6.80;99.90
15656;DHT22;7928;43.614;1.456;2024-01-06T06:29:47;6.80;99.90
15656;DHT22;7928;43.614;1.456;2024-01-06T06:32:14;6.90;99.90
15656;DHT22;7928;43.614;1.456;2024-01-06T06:34:41;6.80;99.90
15656;DHT22;7928;43.614;1.456;2024-01-06T06:37:09;6.90;99.90
15656;DHT22;7928;43.614;1.456;2024-01-06T06:39:36;6.90;99.90
15656;DHT22;7928;43.614;1.456;2024-01-06T06:42:04;6.90;99.90
15656;DHT22;7928;43.614;1.456;2024-01-06T06:44:31;6.90;99.90
15656;DHT22;7928;43.614;1.456;2024-01-06T06:46:58;7.00;99.90
15656;DHT22;7928;43.614;1.456;2024-01-06T06:49:25;7.00;99.90
15656;DHT22;7928;43.614;1.456;2024-01-06T06:51:52;7.00;99.90
15656;DHT22;7928;43.614;1.456;2024-01-06T06:54:21;7.00;99.90
15656;DHT22;7928;43.614;1.456;2024-01-06T06:56:48;7.10;99.90
15656;DHT22;7928;43.614;1.456;2024-01-06T06:59:16;7.00;99.90
15656;DHT22;7928;43.614;1.456;2024-01-06T07:01:43;7.00;99.90
15656;DHT22;7928;43.614;1.456;2024-01-06T07:04:10;7.00;99.90
15656;DHT22;7928;43.614;1.456;2024-01-06T07:06:37;7.00;99.90
15656;DHT22;7928;43.614;1.456;2024-01-06T07:09:04;7.00;99.90
15656;DHT22;7928;43.614;1.456;2024-01-06T07:11:31;7.00;99.90
15656;DHT22;7928;43.614;1.456;2024-01-06T07:13:58;7.00;99.90
15656;DHT22;7928;43.614;1.456;2024-01-06T07:16:27;7.00;99.90
15656;DHT22;7928;43.614;1.456;2024-01-06T07:18:54;7.00;99.90
15656;DHT22;7928;43.614;1.456;2024-01-06T07:21:20;7.00;99.90
15656;DHT22;7928;43.614;1.456;2024-01-06T07:23:48;7.10;99.90
15656;DHT22;7928;43.614;1.456;2024-01-06T07:26:15;7.10;99.90
15656;DHT22;7928;43.614;1.456;2024-01-06T07:28:43;7.10;99.90
15656;DHT22;7928;43.614;1.456;2024-01-06T07:31:10;7.10;99.90
15656;DHT22;7928;43.614;1.456;2024-01-06T07:33:38;7.20;99.90
15656;DHT22;7928;43.614;1.456;2024-01-06T07:36:06;7.30;99.90
15656;DHT22;7928;43.614;1.456;2024-01-06T07:38:33;7.30;99.90
15656;DHT22;7928;43.614;1.456;2024-01-06T07:41:00;7.30;99.90
15656;DHT22;7928;43.614;1.456;2024-01-06T07:43:27;7.20;99.90
15656;DHT22;7928;43.614;1.456;2024-01-06T07:45:54;7.30;99.90
15656;DHT22;7928;43.614;1.456;2024-01-06T07:48:21;7.20;99.90
15656;DHT22;7928;43.614;1.456;2024-01-06T07:50:49;7.20;99.90
15656;DHT22;7928;43.614;1.456;2024-01-06T07:53:16;7.10;99.90
15656;DHT22;7928;43.614;1.456;2024-01-06T07:55:43;7.20;99.90
15656;DHT22;7928;43.614;1.456;2024-01-06T07:58:10;7.20;99.90
15656;DHT22;7928;43.614;1.456;2024-01-06T08:00:38;7.20;99.90
15656;DHT22;7928;43.614;1.456;2024-01-06T08:03:05;7.20;99.90
15656;DHT22;7928;43.614;1.456;2024-01-06T08:05:31;7.10;99.90
15656;DHT22;7928;43.614;1.456;2024-01-06T08:08:00;7.10;99.90
15656;DHT22;7928;43.614;1.456;2024-01-06T08:10:27;7.10;99.90
15656;DHT22;7928;43.614;1.456;2024-01-06T08:12:54;7.10;99.90
15656;DHT22;7928;43.614;1.456;2024-01-06T08:15:21;7.20;99.90
15656;DHT22;7928;43.614;1.456;2024-01-06T08:17:47;7.30;99.90
15656;DHT22;7928;43.614;1.456;2024-01-06T08:20:14;7.30;99.90
15656;DHT22;7928;43.614;1.456;2024-01-06T08:22:41;7.30;99.90
15656;DHT22;7928;43.614;1.456;2024-01-06T08:25:11;7.30;99.90
15656;DHT22;7928;43.614;1.456;2024-01-06T08:27:39;7.40;99.90
15656;DHT22;7928;43.614;1.456;2024-01-06T08:30:07;7.40;99.90
15656;DHT22;7928;43.614;1.456;2024-01-06T08:32:34;7.50;99.90
15656;DHT22;7928;43.614;1.456;2024-01-06T08:35:01;7.50;99.90
15656;DHT22;7928;43.614;1.456;2024-01-06T08:37:29;7.50;99.90
15656;DHT22;7928;43.614;1.456;2024-01-06T08:39:56;7.60;99.90
15656;DHT22;7928;43.614;1.456;2024-01-06T08:42:24;7.60;99.90
15656;DHT22;7928;43.614;1.456;2024-01-06T08:44:52;7.50;99.90
15656;DHT22;7928;43.614;1.456;2024-01-06T08:47:18;7.60;99.90
15656;DHT22;7928;43.614;1.456;2024-01-06T08:49:45;7.60;99.90
15656;DHT22;7928;43.614;1.456;2024-01-06T08:52:12;7.70;99.90
15656;DHT22;7928;43.614;1.456;2024-01-06T08:54:39;7.70;99.90
15656;DHT22;7928;43.614;1.456;2024-01-06T08:57:06;7.80;99.90
15656;DHT22;7928;43.614;1.456;2024-01-06T08:59:35;7.80;99.90
15656;DHT22;7928;43.614;1.456;2024-01-06T09:02:02;7.70;99.90
15656;DHT22;7928;43.614;1.456;2024-01-06T09:04:29;7.70;99.90
15656;DHT22;7928;43.614;1.456;2024-01-06T09:06:56;7.80;99.90
15656;DHT22;7928;43.614;1.456;2024-01-06T09:09:23;7.80;99.90
15656;DHT22;7928;43.614;1.456;2024-01-06T09:11:50;7.80;99.90
15656;DHT22;7928;43.614;1.456;2024-01-06T09:14:18;7.90;99.90
15656;DHT22;7928;43.614;1.456;2024-01-06T09:16:46;7.90;99.90
15656;DHT22;7928;43.614;1.456;2024-01-06T09:19:13;8.00;99.90
15656;DHT22;7928;43.614;1.456;2024-01-06T09:21:40;7.90;99.90
15656;DHT22;7928;43.614;1.456;2024-01-06T09:24:07;8.00;99.90
15656;DHT22;7928;43.614;1.456;2024-01-06T09:26:34;8.00;99.90
15656;DHT22;7928;43.614;1.456;2024-01-06T09:29:02;8.00;99.90
15656;DHT22;7928;43.614;1.456;2024-01-06T09:31:29;8.10;99.90
15656;DHT22;7928;43.614;1.456;2024-01-06T09:34:00;8.20;99.90
15656;DHT22;7928;43.614;1.456;2024-01-06T09:36:29;8.10;99.90
15656;DHT22;7928;43.614;1.456;2024-01-06T09:38:56;8.10;99.90
15656;DHT22;7928;43.614;1.456;2024-01-06T09:41:23;8.10;99.90
15656;DHT22;7928;43.614;1.456;2024-01-06T09:43:50;8.30;99.90
15656;DHT22;7928;43.614;1.456;2024-01-06T09:46:23;8.40;99.90
15656;DHT22;7928;43.614;1.456;2024-01-06T09:48:53;8.40;99.90
15656;DHT22;7928;43.614;1.456;2024-01-06T09:51:22;8.30;99.90
15656;DHT22;7928;43.614;1.456;2024-01-06T09:53:55;8.30;99.90
15656;DHT22;7928;43.614;1.456;2024-01-06T09:56:24;8.50;99.90
15656;DHT22;7928;43.614;1.456;2024-01-06T09:58:51;8.50;99.90
15656;DHT22;7928;43.614;1.456;2024-01-06T10:01:18;8.50;99.90
15656;DHT22;7928;43.614;1.456;2024-01-06T10:03:45;8.50;99.90
15656;DHT22;7928;43.614;1.456;2024-01-06T10:06:13;8.30;99.90
15656;DHT22;7928;43.614;1.456;2024-01-06T10:08:43;8.10;99.90
15656;DHT22;7928;43.614;1.456;2024-01-06T10:11:11;8.00;99.90
15656;DHT22;7928;43.614;1.456;2024-01-06T10:13:37;8.10;99.90
15656;DHT22;7928;43.614;1.456;2024-01-06T10:16:05;8.10;99.90
15656;DHT22;7928;43.614;1.456;2024-01-06T10:18:32;8.10;99.90
15656;DHT22;7928;43.614;1.456;2024-01-06T10:21:03;8.10;99.90
15656;DHT22;7928;43.614;1.456;2024-01-06T10:23:31;8.10;99.90
15656;DHT22;7928;43.614;1.456;2024-01-06T10:26:00;8.10;99.90
15656;DHT22;7928;43.614;1.456;2024-01-06T10:28:27;8.20;99.90
15656;DHT22;7928;43.614;1.456;2024-01-06T10:30:55;8.60;99.90
15656;DHT22;7928;43.614;1.456;2024-01-06T10:33:23;8.90;99.90
15656;DHT22;7928;43.614;1.456;2024-01-06T10:35:50;9.20;99.90
15656;DHT22;7928;43.614;1.456;2024-01-06T10:38:17;9.40;99.90
15656;DHT22;7928;43.614;1.456;2024-01-06T10:40:56;10.00;99.90
15656;DHT22;7928;43.614;1.456;2024-01-06T10:43:26;11.00;99.90
15656;DHT22;7928;43.614;1.456;2024-01-06T10:45:55;12.00;99.90
15656;DHT22;7928;43.614;1.456;2024-01-06T10:48:25;13.30;99.90
15656;DHT22;7928;43.614;1.456;2024-01-06T10:50:52;13.20;99.90
15656;DHT22;7928;43.614;1.456;2024-01-06T10:53:20;11.80;99.90
15656;DHT22;7928;43.614;1.456;2024-01-06T10:55:49;10.70;99.90
15656;DHT22;7928;43.614;1.456;2024-01-06T10:58:17;10.00;99.90
15656;DHT22;7928;43.614;1.456;2024-01-06T11:00:47;9.40;99.90
15656;DHT22;7928;43.614;1.456;2024-01-06T11:03:14;9.30;99.90
15656;DHT22;7928;43.614;1.456;2024-01-06T11:05:41;9.10;99.90
15656;DHT22;7928;43.614;1.456;2024-01-06T11:08:09;9.00;99.90
15656;DHT22;7928;43.614;1.456;2024-01-06T11:10:37;9.10;99.90
15656;DHT22;7928;43.614;1.456;2024-01-06T11:13:09;9.00;99.90
15656;DHT22;7928;43.614;1.456;2024-01-06T11:15:46;9.00;99.90
15656;DHT22;7928;43.614;1.456;2024-01-06T11:18:37;8.90;99.90
15656;DHT22;7928;43.614;1.456;2024-01-06T11:21:20;8.70;99.90
15656;DHT22;7928;43.614;1.456;2024-01-06T11:24:15;8.60;99.90
15656;DHT22;7928;43.614;1.456;2024-01-06T11:26:43;8.60;99.90
15656;DHT22;7928;43.614;1.456;2024-01-06T11:29:11;8.40;99.90
15656;DHT22;7928;43.614;1.456;2024-01-06T11:31:40;8.40;99.90
15656;DHT22;7928;43.614;1.456;2024-01-06T11:34:15;8.30;99.90
15656;DHT22;7928;43.614;1.456;2024-01-06T11:36:43;8.30;99.90
15656;DHT22;7928;43.614;1.456;2024-01-06T11:39:33;8.40;99.90
15656;DHT22;7928;43.614;1.456;2024-01-06T11:42:00;8.50;99.90
15656;DHT22;7928;43.614;1.456;2024-01-06T11:44:28;8.60;99.90
15656;DHT22;7928;43.614;1.456;2024-01-06T11:46:57;8.90;99.90
15656;DHT22;7928;43.614;1.456;2024-01-06T11:49:26;10.90;99.90
15656;DHT22;7928;43.614;1.456;2024-01-06T11:51:54;10.90;99.90
15656;DHT22;7928;43.614;1.456;2024-01-06T11:54:21;10.30;99.90
15656;DHT22;7928;43.614;1.456;2024-01-06T11:56:48;9.90;99.90
15656;DHT22;7928;43.614;1.456;2024-01-06T11:59:15;9.40;99.90
15656;DHT22;7928;43.614;1.456;2024-01-06T12:01:42;9.20;99.90
15656;DHT22;7928;43.614;1.456;2024-01-06T12:04:14;9.10;99.90
15656;DHT22;7928;43.614;1.456;2024-01-06T12:06:41;9.00;99.90
15656;DHT22;7928;43.614;1.456;2024-01-06T12:09:10;9.00;99.90
15656;DHT22;7928;43.614;1.456;2024-01-06T12:11:39;9.00;99.90
15656;DHT22;7928;43.614;1.456;2024-01-06T12:14:06;8.90;99.90
15656;DHT22;7928;43.614;1.456;2024-01-06T12:16:33;8.80;99.90
15656;DHT22;7928;43.614;1.456;2024-01-06T12:19:00;8.90;99.90
15656;DHT22;7928;43.614;1.456;2024-01-06T12:21:30;8.90;99.90
15656;DHT22;7928;43.614;1.456;2024-01-06T12:24:14;8.80;99.90
15656;DHT22;7928;43.614;1.456;2024-01-06T12:26:43;8.90;99.90
15656;DHT22;7928;43.614;1.456;2024-01-06T12:29:10;8.90;99.90
15656;DHT22;7928;43.614;1.456;2024-01-06T12:31:38;8.80;99.90
15656;DHT22;7928;43.614;1.456;2024-01-06T12:34:05;8.60;99.90
15656;DHT22;7928;43.614;1.456;2024-01-06T12:36:34;8.70;99.90
15656;DHT22;7928;43.614;1.456;2024-01-06T12:39:02;8.60;99.90
15656;DHT22;7928;43.614;1.456;2024-01-06T12:41:29;8.60;99.90
15656;DHT22;7928;43.614;1.456;2024-01-06T12:43:58;8.50;99.90
15656;DHT22;7928;43.614;1.456;2024-01-06T12:46:26;8.60;99.90
15656;DHT22;7928;43.614;1.456;2024-01-06T12:48:53;8.70;99.90
15656;DHT22;7928;43.614;1.456;2024-01-06T12:51:20;9.00;99.90
15656;DHT22;7928;43.614;1.456;2024-01-06T12:53:48;9.20;99.90
15656;DHT22;7928;43.614;1.456;2024-01-06T12:56:15;9.40;99.90
15656;DHT22;7928;43.614;1.456;2024-01-06T12:58:42;9.60;99.90
15656;DHT22;7928;43.614;1.456;2024-01-06T13:01:09;9.70;99.90
15656;DHT22;7928;43.614;1.456;2024-01-06T13:03:36;9.60;99.90
15656;DHT22;7928;43.614;1.456;2024-01-06T13:06:04;9.60;99.90
15656;DHT22;7928;43.614;1.456;2024-01-06T13:08:31;9.40;99.90
15656;DHT22;7928;43.614;1.456;2024-01-06T13:10:59;9.40;99.90
15656;DHT22;7928;43.614;1.456;2024-01-06T13:13:26;9.30;99.90
15656;DHT22;7928;43.614;1.456;2024-01-06T13:15:53;9.30;99.90
15656;DHT22;7928;43.614;1.456;2024-01-06T13:18:20;9.40;99.90
15656;DHT22;7928;43.614;1.456;2024-01-06T13:20:47;9.40;99.90
15656;DHT22;7928;43.614;1.456;2024-01-06T13:23:15;9.30;99.90
15656;DHT22;7928;43.614;1.456;2024-01-06T13:25:43;9.30;99.90
15656;DHT22;7928;43.614;1.456;2024-01-06T13:28:11;9.30;99.90
15656;DHT22;7928;43.614;1.456;2024-01-06T13:30:38;9.30;99.90
15656;DHT22;7928;43.614;1.456;2024-01-06T13:33:07;9.20;99.90
15656;DHT22;7928;43.614;1.456;2024-01-06T13:35:35;9.10;99.90
15656;DHT22;7928;43.614;1.456;2024-01-06T13:38:02;9.10;99.90
15656;DHT22;7928;43.614;1.456;2024-01-06T13:40:30;9.30;99.90
15656;DHT22;7928;43.614;1.456;2024-01-06T13:42:58;10.00;99.90
15656;DHT22;7928;43.614;1.456;2024-01-06T13:45:26;10.30;99.90
15656;DHT22;7928;43.614;1.456;2024-01-06T13:47:55;10.40;99.90
15656;DHT22;7928;43.614;1.456;2024-01-06T13:50:23;10.50;99.90
15656;DHT22;7928;43.614;1.456;2024-01-06T13:52:50;10.80;99.90
15656;DHT22;7928;43.614;1.456;2024-01-06T13:55:17;11.70;99.90
15656;DHT22;7928;43.614;1.456;2024-01-06T13:57:44;11.80;99.90
15656;DHT22;7928;43.614;1.456;2024-01-06T14:00:12;11.50;99.90
15656;DHT22;7928;43.614;1.456;2024-01-06T14:02:45;11.20;99.90
15656;DHT22;7928;43.614;1.456;2024-01-06T14:05:13;10.70;99.90
15656;DHT22;7928;43.614;1.456;2024-01-06T14:07:40;10.40;99.90
15656;DHT22;7928;43.614;1.456;2024-01-06T14:10:11;10.30;99.90
15656;DHT22;7928;43.614;1.456;2024-01-06T14:12:38;10.30;99.90
15656;DHT22;7928;43.614;1.456;2024-01-06T14:15:07;10.20;99.90
15656;DHT22;7928;43.614;1.456;2024-01-06T14:17:34;10.10;99.90
15656;DHT22;7928;43.614;1.456;2024-01-06T14:20:03;10.10;99.90
15656;DHT22;7928;43.614;1.456;2024-01-06T14:22:30;10.10;99.90
15656;DHT22;7928;43.614;1.456;2024-01-06T14:24:57;10.20;99.90
15656;DHT22;7928;43.614;1.456;2024-01-06T14:27:24;10.30;99.90
15656;DHT22;7928;43.614;1.456;2024-01-06T14:29:51;10.10;99.90
15656;DHT22;7928;43.614;1.456;2024-01-06T14:32:21;10.10;99.90
15656;DHT22;7928;43.614;1.456;2024-01-06T14:34:49;10.10;99.90
15656;DHT22;7928;43.614;1.456;2024-01-06T14:37:18;10.10;99.90
15656;DHT22;7928;43.614;1.456;2024-01-06T14:39:45;9.90;99.90
15656;DHT22;7928;43.614;1.456;2024-01-06T14:42:12;9.90;99.90
15656;DHT22;7928;43.614;1.456;2024-01-06T14:44:41;9.70;99.90
15656;DHT22;7928;43.614;1.456;2024-01-06T14:47:07;9.70;99.90
15656;DHT22;7928;43.614;1.456;2024-01-06T14:49:34;9.60;99.90
15656;DHT22;7928;43.614;1.456;2024-01-06T14:52:01;9.50;99.90
15656;DHT22;7928;43.614;1.456;2024-01-06T14:54:30;9.40;99.90
15656;DHT22;7928;43.614;1.456;2024-01-06T14:56:58;9.40;99.90
15656;DHT22;7928;43.614;1.456;2024-01-06T14:59:25;9.30;99.90
15656;DHT22;7928;43.614;1.456;2024-01-06T15:01:54;9.30;99.90
15656;DHT22;7928;43.614;1.456;2024-01-06T15:04:21;9.40;99.90
15656;DHT22;7928;43.614;1.456;2024-01-06T15:06:48;9.40;99.90
15656;DHT22;7928;43.614;1.456;2024-01-06T15:09:16;9.40;99.90
15656;DHT22;7928;43.614;1.456;2024-01-06T15:11:45;9.40;99.90
15656;DHT22;7928;43.614;1.456;2024-01-06T15:14:12;9.40;99.90
15656;DHT22;7928;43.614;1.456;2024-01-06T15:16:39;9.40;99.90
15656;DHT22;7928;43.614;1.456;2024-01-06T15:19:06;9.50;99.90
15656;DHT22;7928;43.614;1.456;2024-01-06T15:21:33;9.40;99.90
15656;DHT22;7928;43.614;1.456;2024-01-06T15:24:02;9.50;99.90
15656;DHT22;7928;43.614;1.456;2024-01-06T15:26:29;9.40;99.90
15656;DHT22;7928;43.614;1.456;2024-01-06T15:28:57;9.40;99.90
15656;DHT22;7928;43.614;1.456;2024-01-06T15:31:26;9.30;99.90
15656;DHT22;7928;43.614;1.456;2024-01-06T15:33:54;9.30;99.90
15656;DHT22;7928;43.614;1.456;2024-01-06T15:36:21;9.20;99.90
15656;DHT22;7928;43.614;1.456;2024-01-06T15:38:49;9.10;99.90
15656;DHT22;7928;43.614;1.456;2024-01-06T15:41:16;9.20;99.90
15656;DHT22;7928;43.614;1.456;2024-01-06T15:43:43;9.30;99.90
15656;DHT22;7928;43.614;1.456;2024-01-06T15:46:11;9.20;99.90
15656;DHT22;7928;43.614;1.456;2024-01-06T15:48:39;8.90;99.90
15656;DHT22;7928;43.614;1.456;2024-01-06T15:51:06;8.80;99.90
15656;DHT22;7928;43.614;1.456;2024-01-06T15:53:33;8.70;99.90
15656;DHT22;7928;43.614;1.456;2024-01-06T15:56:00;8.60;99.90
15656;DHT22;7928;43.614;1.456;2024-01-06T15:58:27;8.50;99.90
15656;DHT22;7928;43.614;1.456;2024-01-06T16:00:54;8.50;99.90
15656;DHT22;7928;43.614;1.456;2024-01-06T16:03:23;8.40;99.90